Time;durP1;ratioP1;P1;durP2;ratioP2;P2;SDS_P1;SDS_P2;PMS_P1;PMS_P2;Temp;Humidity;BMP_temperature;BMP_pressure;BME280_temperature;BME280_humidity;BME280_pressure;Samples;Min_cycle;Max_cycle;Signal;HPM_P1;HPM_P2
2022/12/30 00:00:47;;;;;;;;;;;;;;;;;;5074335;28;1475;-71
2022/12/30 00:03:13;;;;;;;;;;;;;;;;;;5091407;28;1356;-72
2022/12/30 00:05:39;;;;;;;;;;;;;;;;;;5092550;28;1119;-72
2022/12/30 00:08:45;;;;;;;;;;;;;;;;;;5092094;28;1075;-72
2022/12/30 00:10:52;;;;;;;;;;;;;;;;;;5073685;28;1213;-72
2022/12/30 00:35:24;;;;;;;;;;;;;;;;;;4971867;28;1926;-72
2022/12/30 00:37:50;;;;;;;;;;;;;;;;;;5038823;28;1452;-72
2022/12/30 00:40:16;;;;;;;;;;;;;;;;;;5071922;28;1209;-72
2022/12/30 00:45:26;;;;;;;;;;;;;;;;;;5071876;28;1153;-71
2022/12/30 00:47:54;;;;;;;;;;;;;;;;;;5074026;28;1274;-71
2022/12/30 00:58:32;;;;;;;;;;;;;;;;;;5091615;28;833;-71
2022/12/30 01:00:58;;;;;;;;;;;;;;;;;;5090567;28;889;-71
2022/12/30 01:03:26;;;;;;;;;;;;;;;;;;5090683;28;1411;-72
2022/12/30 01:05:52;;;;;;;;;;;;;;;;;;5091520;28;1063;-72
2022/12/30 01:08:18;;;;;;;;;;;;;;;;;;5091337;28;1026;-72
2022/12/30 01:10:44;;;;;;;;;;;;;;;;;;5091517;28;1066;-71
2022/12/30 01:13:10;;;;;;;;;;;;;;;;;;5089649;28;1772;-72
2022/12/30 01:15:37;;;;;;;;;;;;;;;;;;5073192;28;1983;-72
2022/12/30 01:18:03;;;;;;;;;;;;;;;;;;5091161;28;1055;-72
2022/12/30 01:20:30;;;;;;;;;;;;;;;;;;5073113;28;1140;-71
2022/12/30 01:22:56;;;;;;;;;;;;;;;;;;5072236;28;1414;-72
2022/12/30 01:25:23;;;;;;;;;;;;;;;;;;5091152;28;992;-72
2022/12/30 01:27:50;;;;;;;;;;;;;;;;;;5073171;28;1118;-72
2022/12/30 01:30:16;;;;;;;;;;;;;;;;;;5073180;28;1232;-72
2022/12/30 01:32:42;;;;;;;;;;;;;;;;;;5090335;28;1268;-72
2022/12/30 01:35:08;;;;;;;;;;;;;;;;;;5072770;28;1902;-72
2022/12/30 01:37:36;;;;;;;;;;;;;;;;;;5091260;28;1098;-71
2022/12/30 01:40:02;;;;;;;;;;;;;;;;;;5072425;28;1517;-72
2022/12/30 01:42:29;;;;;;;;;;;;;;;;;;5090274;28;1114;-71
2022/12/30 01:44:57;;;;;;;;;;;;;;;;;;5090847;28;1326;-72
2022/12/30 01:47:24;;;;;;;;;;;;;;;;;;5090907;28;886;-72
2022/12/30 01:49:51;;;;;;;;;;;;;;;;;;5090960;28;1059;-72
2022/12/30 01:52:17;;;;;;;;;;;;;;;;;;5072051;28;1173;-71
2022/12/30 01:54:45;;;;;;;;;;;;;;;;;;5072574;28;1914;-72
2022/12/30 01:57:11;;;;;;;;;;;;;;;;;;5090741;28;766;-71
2022/12/30 01:59:37;;;;;;;;;;;;;;;;;;5090877;28;1004;-71
2022/12/30 02:02:03;;;;;;;;;;;;;;;;;;5090028;28;1059;-73
2022/12/30 02:04:30;;;;;;;;;;;;;;;;;;5072514;28;1241;-71
2022/12/30 02:06:57;;;;;;;;;;;;;;;;;;5072374;28;1154;-71
2022/12/30 02:09:23;;;;;;;;;;;;;;;;;;5090643;28;1063;-71
2022/12/30 02:11:50;;;;;;;;;;;;;;;;;;5090022;28;1063;-71
2022/12/30 02:14:17;;;;;;;;;;;;;;;;;;5094034;28;1397;-71
2022/12/30 02:16:48;;;;;;;;;;;;;;;;;;5094280;28;1988;-71
2022/12/30 02:19:21;;;;;;;;;;;;;;;;;;5094217;28;1088;-71
2022/12/30 02:21:50;;;;;;;;;;;;;;;;;;5093599;28;1063;-71
2022/12/30 02:24:34;;;;;;;;;;;;;;;;;;5093956;28;1348;-73
2022/12/30 02:27:07;;;;;;;;;;;;;;;;;;5043341;28;1122;-72
2022/12/30 02:29:41;;;;;;;;;;;;;;;;;;5076053;28;1045;-72
2022/12/30 02:32:09;;;;;;;;;;;;;;;;;;5092250;28;2266;-72
2022/12/30 02:34:36;;;;;;;;;;;;;;;;;;5093737;28;1360;-73
2022/12/30 02:37:04;;;;;;;;;;;;;;;;;;5093678;28;1911;-72
2022/12/30 02:39:31;;;;;;;;;;;;;;;;;;5091687;28;1324;-72
2022/12/30 02:44:44;;;;;;;;;;;;;;;;;;5075216;28;1387;-72
2022/12/30 02:47:13;;;;;;;;;;;;;;;;;;5093772;28;1232;-72
2022/12/30 02:49:40;;;;;;;;;;;;;;;;;;5093553;28;1135;-73
2022/12/30 02:52:14;;;;;;;;;;;;;;;;;;5092946;28;1075;-73
2022/12/30 02:54:40;;;;;;;;;;;;;;;;;;5092781;28;1412;-73
2022/12/30 02:57:21;;;;;;;;;;;;;;;;;;5075136;28;1921;-73
2022/12/30 03:05:23;;;;;;;;;;;;;;;;;;5075265;28;1179;-73
2022/12/30 03:07:51;;;;;;;;;;;;;;;;;;5093337;28;960;-72
2022/12/30 03:13:04;;;;;;;;;;;;;;;;;;5071594;28;1328;-72
2022/12/30 03:15:31;;;;;;;;;;;;;;;;;;5092958;28;1977;-73
2022/12/30 03:17:59;;;;;;;;;;;;;;;;;;5075278;28;1301;-73
2022/12/30 03:20:25;;;;;;;;;;;;;;;;;;5093090;28;964;-72
2022/12/30 03:28:19;;;;;;;;;;;;;;;;;;5093128;28;1008;-73
2022/12/30 03:30:46;;;;;;;;;;;;;;;;;;5092718;28;1122;-72
2022/12/30 03:33:14;;;;;;;;;;;;;;;;;;5091985;28;1331;-72
2022/12/30 03:35:43;;;;;;;;;;;;;;;;;;5092729;28;1917;-72
2022/12/30 03:38:10;;;;;;;;;;;;;;;;;;5092921;28;1055;-72
2022/12/30 03:40:37;;;;;;;;;;;;;;;;;;5092410;28;1000;-72
2022/12/30 03:43:03;;;;;;;;;;;;;;;;;;5091531;28;1458;-72
2022/12/30 03:45:29;;;;;;;;;;;;;;;;;;5092318;28;918;-73
2022/12/30 03:47:56;;;;;;;;;;;;;;;;;;5074570;28;1309;-73
2022/12/30 03:50:23;;;;;;;;;;;;;;;;;;5074409;28;1218;-72
2022/12/30 03:52:49;;;;;;;;;;;;;;;;;;5091647;28;1322;-73
2022/12/30 03:55:16;;;;;;;;;;;;;;;;;;5092578;28;2001;-72
2022/12/30 03:57:42;;;;;;;;;;;;;;;;;;5074331;28;1123;-72
2022/12/30 04:00:09;;;;;;;;;;;;;;;;;;5093502;28;960;-72
2022/12/30 04:02:38;;;;;;;;;;;;;;;;;;5093963;28;1110;-72
2022/12/30 04:05:05;;;;;;;;;;;;;;;;;;5094321;28;1035;-72
2022/12/30 04:07:33;;;;;;;;;;;;;;;;;;5074081;28;1102;-73
2022/12/30 04:10:00;;;;;;;;;;;;;;;;;;5092362;28;822;-72
2022/12/30 04:12:26;;;;;;;;;;;;;;;;;;5072846;28;1007;-72
2022/12/30 04:14:52;;;;;;;;;;;;;;;;;;5091943;28;1306;-72
2022/12/30 04:17:18;;;;;;;;;;;;;;;;;;5074051;28;1985;-72
2022/12/30 04:19:44;;;;;;;;;;;;;;;;;;5073915;28;1553;-72
2022/12/30 04:22:11;;;;;;;;;;;;;;;;;;5091333;28;740;-72
2022/12/30 04:24:38;;;;;;;;;;;;;;;;;;5087843;28;1430;-72
2022/12/30 04:27:04;;;;;;;;;;;;;;;;;;5089527;28;1313;-74
2022/12/30 04:29:30;;;;;;;;;;;;;;;;;;5073334;28;1584;-73
2022/12/30 04:31:57;;;;;;;;;;;;;;;;;;5087169;28;1474;-72
2022/12/30 04:34:23;;;;;;;;;;;;;;;;;;5070239;28;1414;-73
2022/12/30 04:36:49;;;;;;;;;;;;;;;;;;5089554;28;1917;-73
2022/12/30 04:39:15;;;;;;;;;;;;;;;;;;5091861;28;1192;-73
2022/12/30 04:41:43;;;;;;;;;;;;;;;;;;5088334;28;1365;-72
2022/12/30 04:44:09;;;;;;;;;;;;;;;;;;5088406;28;1419;-73
2022/12/30 04:46:35;;;;;;;;;;;;;;;;;;5075966;28;1285;-73
2022/12/30 04:49:01;;;;;;;;;;;;;;;;;;5089806;28;1230;-73
2022/12/30 04:51:27;;;;;;;;;;;;;;;;;;5089440;28;1413;-73
2022/12/30 04:53:54;;;;;;;;;;;;;;;;;;5089341;28;1511;-72
2022/12/30 04:56:20;;;;;;;;;;;;;;;;;;5082516;28;1971;-73
2022/12/30 04:58:47;;;;;;;;;;;;;;;;;;5074035;28;1309;-72
2022/12/30 05:01:14;;;;;;;;;;;;;;;;;;5088489;28;1407;-72
2022/12/30 05:03:40;;;;;;;;;;;;;;;;;;5088925;28;1404;-73
2022/12/30 05:06:07;;;;;;;;;;;;;;;;;;5089197;28;1274;-73
2022/12/30 05:08:33;;;;;;;;;;;;;;;;;;5088866;28;1482;-73
2022/12/30 05:10:59;;;;;;;;;;;;;;;;;;5089931;28;1398;-73
2022/12/30 05:13:25;;;;;;;;;;;;;;;;;;5088795;28;1475;-73
2022/12/30 05:15:53;;;;;;;;;;;;;;;;;;5089743;28;1967;-73
2022/12/30 05:18:19;;;;;;;;;;;;;;;;;;5090198;28;1300;-73
2022/12/30 05:20:45;;;;;;;;;;;;;;;;;;5074675;28;1307;-73
2022/12/30 05:28:35;;;;;;;;;;;;;;;;;;5090801;28;1228;-73
2022/12/30 05:31:03;;;;;;;;;;;;;;;;;;5090777;28;1119;-73
2022/12/30 05:33:29;;;;;;;;;;;;;;;;;;5088765;28;1381;-73
2022/12/30 05:35:55;;;;;;;;;;;;;;;;;;5089391;28;1914;-73
2022/12/30 05:38:21;;;;;;;;;;;;;;;;;;5089947;28;1230;-73
2022/12/30 05:40:48;;;;;;;;;;;;;;;;;;5089611;28;1281;-72
2022/12/30 05:43:14;;;;;;;;;;;;;;;;;;5074727;28;1408;-73
2022/12/30 05:45:40;;;;;;;;;;;;;;;;;;5091067;28;921;-73
2022/12/30 05:48:08;;;;;;;;;;;;;;;;;;5094502;28;1067;-75
2022/12/30 05:50:34;;;;;;;;;;;;;;;;;;5094884;28;838;-73
2022/12/30 05:53:00;;;;;;;;;;;;;;;;;;5094055;28;1494;-73
2022/12/30 05:55:26;;;;;;;;;;;;;;;;;;5094887;28;1039;-74
2022/12/30 05:57:52;;;;;;;;;;;;;;;;;;5076444;28;1914;-73
2022/12/30 06:00:19;;;;;;;;;;;;;;;;;;5093269;28;1362;-73
2022/12/30 06:02:45;;;;;;;;;;;;;;;;;;5092480;28;1459;-74
2022/12/30 06:05:12;;;;;;;;;;;;;;;;;;5093463;28;1277;-74
2022/12/30 06:07:39;;;;;;;;;;;;;;;;;;5103356;28;1269;-73
2022/12/30 06:10:05;;;;;;;;;;;;;;;;;;5092710;28;1060;-73
2022/12/30 06:12:32;;;;;;;;;;;;;;;;;;5091791;28;955;-73
2022/12/30 06:14:58;;;;;;;;;;;;;;;;;;5092709;28;1330;-73
2022/12/30 06:17:24;;;;;;;;;;;;;;;;;;5074548;28;1914;-73
2022/12/30 06:19:50;;;;;;;;;;;;;;;;;;5074559;28;1294;-73
2022/12/30 06:22:18;;;;;;;;;;;;;;;;;;5092075;28;834;-73
2022/12/30 06:24:44;;;;;;;;;;;;;;;;;;5093207;28;1300;-73
2022/12/30 06:27:10;;;;;;;;;;;;;;;;;;5094148;28;1104;-73
2022/12/30 06:29:36;;;;;;;;;;;;;;;;;;5094403;28;794;-73
2022/12/30 06:32:03;;;;;;;;;;;;;;;;;;5093705;28;1067;-73
2022/12/30 06:34:29;;;;;;;;;;;;;;;;;;5075665;28;1368;-73
2022/12/30 06:36:55;;;;;;;;;;;;;;;;;;5077412;28;1914;-73
2022/12/30 06:39:22;;;;;;;;;;;;;;;;;;5073738;28;798;-73
2022/12/30 06:41:49;;;;;;;;;;;;;;;;;;5084491;28;1059;-73
2022/12/30 06:44:15;;;;;;;;;;;;;;;;;;5093366;28;1424;-73
2022/12/30 06:46:41;;;;;;;;;;;;;;;;;;5093664;28;964;-73
2022/12/30 06:49:08;;;;;;;;;;;;;;;;;;5075424;28;1266;-73
2022/12/30 06:51:34;;;;;;;;;;;;;;;;;;5074852;28;1130;-73
2022/12/30 06:54:00;;;;;;;;;;;;;;;;;;5075428;28;1347;-72
2022/12/30 06:56:28;;;;;;;;;;;;;;;;;;5093361;28;1971;-73
2022/12/30 06:58:54;;;;;;;;;;;;;;;;;;5092842;28;870;-73
2022/12/30 07:01:20;;;;;;;;;;;;;;;;;;5093001;28;975;-73
2022/12/30 07:03:46;;;;;;;;;;;;;;;;;;5093512;28;1309;-73
2022/12/30 07:06:13;;;;;;;;;;;;;;;;;;5093582;28;1315;-73
2022/12/30 07:08:39;;;;;;;;;;;;;;;;;;5093484;28;949;-73
2022/12/30 07:11:05;;;;;;;;;;;;;;;;;;5075604;28;1308;-73
2022/12/30 07:13:32;;;;;;;;;;;;;;;;;;5093545;28;1329;-73
2022/12/30 07:15:59;;;;;;;;;;;;;;;;;;5096353;28;1134;-73
2022/12/30 07:18:25;;;;;;;;;;;;;;;;;;5096387;28;1989;-73
2022/12/30 07:20:51;;;;;;;;;;;;;;;;;;5093638;28;1051;-73
2022/12/30 07:23:17;;;;;;;;;;;;;;;;;;5092550;28;1317;-73
2022/12/30 07:25:45;;;;;;;;;;;;;;;;;;5093090;28;1075;-73
2022/12/30 07:28:11;;;;;;;;;;;;;;;;;;5092903;28;548;-73
2022/12/30 07:30:40;;;;;;;;;;;;;;;;;;5092920;28;1071;-73
2022/12/30 07:33:06;;;;;;;;;;;;;;;;;;5092012;28;1410;-73
2022/12/30 07:35:32;;;;;;;;;;;;;;;;;;5093217;28;929;-73
2022/12/30 07:37:59;;;;;;;;;;;;;;;;;;5092996;28;1910;-73
2022/12/30 07:40:25;;;;;;;;;;;;;;;;;;5092782;28;1063;-73
2022/12/30 07:42:51;;;;;;;;;;;;;;;;;;5091583;28;1693;-73
2022/12/30 07:45:17;;;;;;;;;;;;;;;;;;5074507;28;1365;-73
2022/12/30 07:47:45;;;;;;;;;;;;;;;;;;5092533;28;1051;-73
2022/12/30 07:50:11;;;;;;;;;;;;;;;;;;5074363;28;1231;-73
2022/12/30 07:52:37;;;;;;;;;;;;;;;;;;5091657;28;1083;-73
2022/12/30 07:55:04;;;;;;;;;;;;;;;;;;5092527;28;1419;-73
2022/12/30 07:57:30;;;;;;;;;;;;;;;;;;5092143;28;1914;-73
2022/12/30 07:59:56;;;;;;;;;;;;;;;;;;5092582;28;853;-73
2022/12/30 08:02:23;;;;;;;;;;;;;;;;;;5073359;28;1108;-73
2022/12/30 08:04:50;;;;;;;;;;;;;;;;;;5092173;28;1352;-74
2022/12/30 08:07:16;;;;;;;;;;;;;;;;;;5092431;28;932;-73
2022/12/30 08:09:43;;;;;;;;;;;;;;;;;;5092040;28;1122;-74
2022/12/30 08:12:09;;;;;;;;;;;;;;;;;;5091245;28;1127;-73
2022/12/30 08:14:35;;;;;;;;;;;;;;;;;;5073728;28;1301;-73
2022/12/30 08:17:01;;;;;;;;;;;;;;;;;;5073683;28;1965;-72
2022/12/30 08:19:28;;;;;;;;;;;;;;;;;;5091811;28;1095;-72
2022/12/30 08:21:55;;;;;;;;;;;;;;;;;;5091273;28;1003;-72
2022/12/30 08:24:22;;;;;;;;;;;;;;;;;;5091939;28;1259;-72
2022/12/30 08:26:49;;;;;;;;;;;;;;;;;;5091995;28;1094;-72
2022/12/30 08:29:15;;;;;;;;;;;;;;;;;;5073572;28;1128;-70
2022/12/30 08:31:42;;;;;;;;;;;;;;;;;;5090867;28;799;-72
2022/12/30 08:34:08;;;;;;;;;;;;;;;;;;5080368;28;1513;-72
2022/12/30 08:36:35;;;;;;;;;;;;;;;;;;5053416;28;1914;-71
2022/12/30 08:39:03;;;;;;;;;;;;;;;;;;5071553;28;1093;-72
2022/12/30 08:41:31;;;;;;;;;;;;;;;;;;5084894;28;1222;-72
2022/12/30 08:43:57;;;;;;;;;;;;;;;;;;5084436;28;1489;-72
2022/12/30 08:46:24;;;;;;;;;;;;;;;;;;5073474;28;1263;-72
2022/12/30 08:48:50;;;;;;;;;;;;;;;;;;5091587;28;809;-72
2022/12/30 08:51:16;;;;;;;;;;;;;;;;;;5091013;28;792;-72
2022/12/30 08:53:43;;;;;;;;;;;;;;;;;;5091142;28;1389;-71
2022/12/30 08:56:11;;;;;;;;;;;;;;;;;;5089759;28;1187;-71
2022/12/30 08:58:37;;;;;;;;;;;;;;;;;;5091179;28;1926;-71
2022/12/30 09:01:07;;;;;;;;;;;;;;;;;;5090706;28;1123;-72
2022/12/30 09:03:33;;;;;;;;;;;;;;;;;;5090745;28;1305;-72
2022/12/30 09:05:59;;;;;;;;;;;;;;;;;;5090131;28;1119;-72
2022/12/30 09:08:25;;;;;;;;;;;;;;;;;;5091521;28;1113;-72
2022/12/30 09:10:58;;;;;;;;;;;;;;;;;;5091080;28;873;-71
2022/12/30 09:13:26;;;;;;;;;;;;;;;;;;5082478;28;1360;-72
2022/12/30 09:15:52;;;;;;;;;;;;;;;;;;5090958;28;991;-72
2022/12/30 09:18:19;;;;;;;;;;;;;;;;;;5075454;28;1950;-72
2022/12/30 09:20:45;;;;;;;;;;;;;;;;;;5089447;28;1334;-72
2022/12/30 09:23:11;;;;;;;;;;;;;;;;;;5092521;28;1424;-72
2022/12/30 09:25:37;;;;;;;;;;;;;;;;;;5094261;28;1275;-73
2022/12/30 09:28:04;;;;;;;;;;;;;;;;;;5083073;28;1310;-72
2022/12/30 09:30:31;;;;;;;;;;;;;;;;;;5093755;28;1455;-72
2022/12/30 09:32:57;;;;;;;;;;;;;;;;;;5092638;28;1388;-72
2022/12/30 09:35:24;;;;;;;;;;;;;;;;;;5081969;28;1270;-72
2022/12/30 09:37:50;;;;;;;;;;;;;;;;;;5083825;28;2285;-72
2022/12/30 09:40:16;;;;;;;;;;;;;;;;;;5093917;28;1297;-73
2022/12/30 09:45:41;;;;;;;;;;;;;;;;;;5022870;28;1342;-73
2022/12/30 09:48:08;;;;;;;;;;;;;;;;;;5076918;28;1282;-72
2022/12/30 09:50:35;;;;;;;;;;;;;;;;;;5093323;28;1255;-72
2022/12/30 09:53:03;;;;;;;;;;;;;;;;;;5093641;28;1278;-72
2022/12/30 09:55:29;;;;;;;;;;;;;;;;;;5094713;28;1059;-72
2022/12/30 09:57:58;;;;;;;;;;;;;;;;;;5094210;28;1969;-72
2022/12/30 10:00:24;;;;;;;;;;;;;;;;;;5094468;28;1130;-72
2022/12/30 10:02:54;;;;;;;;;;;;;;;;;;5075285;28;1460;-72
2022/12/30 10:05:33;;;;;;;;;;;;;;;;;;5094469;28;826;-72
2022/12/30 10:08:00;;;;;;;;;;;;;;;;;;5094431;28;1064;-72
2022/12/30 10:10:27;;;;;;;;;;;;;;;;;;5076131;28;1478;-72
2022/12/30 10:12:56;;;;;;;;;;;;;;;;;;5093007;28;1395;-72
2022/12/30 10:15:24;;;;;;;;;;;;;;;;;;5055979;28;1107;-72
2022/12/30 10:17:57;;;;;;;;;;;;;;;;;;5073660;28;1906;-72
2022/12/30 10:20:26;;;;;;;;;;;;;;;;;;5074069;28;1416;-72
2022/12/30 10:22:56;;;;;;;;;;;;;;;;;;5073237;28;1367;-73
2022/12/30 10:25:23;;;;;;;;;;;;;;;;;;5074423;28;948;-72
2022/12/30 10:27:50;;;;;;;;;;;;;;;;;;5075464;28;865;-72
2022/12/30 10:30:17;;;;;;;;;;;;;;;;;;5076484;28;1064;-73
2022/12/30 10:32:45;;;;;;;;;;;;;;;;;;5056312;28;1329;-72
2022/12/30 10:35:14;;;;;;;;;;;;;;;;;;5073267;28;1040;-72
2022/12/30 10:37:40;;;;;;;;;;;;;;;;;;5055440;28;1971;-72
2022/12/30 10:40:08;;;;;;;;;;;;;;;;;;5075834;28;1467;-73
2022/12/30 10:42:42;;;;;;;;;;;;;;;;;;5089976;28;999;-74
2022/12/30 10:45:15;;;;;;;;;;;;;;;;;;5093385;28;1145;-72
2022/12/30 10:47:45;;;;;;;;;;;;;;;;;;5075320;28;1108;-73
2022/12/30 10:50:16;;;;;;;;;;;;;;;;;;5093215;28;1110;-73
2022/12/30 10:52:42;;;;;;;;;;;;;;;;;;5092581;28;1412;-73
2022/12/30 10:55:19;;;;;;;;;;;;;;;;;;5075441;28;1171;-72
2022/12/30 10:57:45;;;;;;;;;;;;;;;;;;5074689;28;1915;-72
2022/12/30 11:00:12;;;;;;;;;;;;;;;;;;5093190;28;778;-72
2022/12/30 11:02:38;;;;;;;;;;;;;;;;;;5092630;28;873;-73
2022/12/30 11:05:06;;;;;;;;;;;;;;;;;;5092906;28;1371;-73
2022/12/30 11:07:34;;;;;;;;;;;;;;;;;;5074983;28;1286;-73
2022/12/30 11:10:00;;;;;;;;;;;;;;;;;;5092988;28;984;-73
2022/12/30 11:15:15;;;;;;;;;;;;;;;;;;5091595;28;1224;-73
2022/12/30 11:17:42;;;;;;;;;;;;;;;;;;5091398;28;1902;-73
2022/12/30 11:20:20;;;;;;;;;;;;;;;;;;5091473;28;1349;-73
2022/12/30 11:22:47;;;;;;;;;;;;;;;;;;5090561;28;1533;-73
2022/12/30 11:25:17;;;;;;;;;;;;;;;;;;5091533;28;1118;-73
2022/12/30 11:27:44;;;;;;;;;;;;;;;;;;5092171;28;1103;-73
2022/12/30 11:30:22;;;;;;;;;;;;;;;;;;5091375;28;1155;-72
2022/12/30 11:32:49;;;;;;;;;;;;;;;;;;5090712;28;1349;-72
2022/12/30 11:35:30;;;;;;;;;;;;;;;;;;5081647;28;1234;-72
2022/12/30 11:37:57;;;;;;;;;;;;;;;;;;5091072;28;1965;-72
2022/12/30 11:40:27;;;;;;;;;;;;;;;;;;5091878;28;1234;-72
2022/12/30 11:43:10;;;;;;;;;;;;;;;;;;5086149;28;1406;-73
2022/12/30 11:45:36;;;;;;;;;;;;;;;;;;5090645;28;1258;-73
2022/12/30 11:48:02;;;;;;;;;;;;;;;;;;5091525;28;1202;-73
2022/12/30 11:50:28;;;;;;;;;;;;;;;;;;5092675;28;928;-72
2022/12/30 11:52:57;;;;;;;;;;;;;;;;;;5073245;28;1341;-73
2022/12/30 11:55:24;;;;;;;;;;;;;;;;;;5092300;28;1059;-73
2022/12/30 11:57:51;;;;;;;;;;;;;;;;;;5091527;28;1917;-73
2022/12/30 12:00:25;;;;;;;;;;;;;;;;;;5091067;28;1242;-73
2022/12/30 12:02:53;;;;;;;;;;;;;;;;;;5077640;28;1386;-73
2022/12/30 12:05:26;;;;;;;;;;;;;;;;;;5090998;28;1281;-73
2022/12/30 12:07:53;;;;;;;;;;;;;;;;;;5082594;28;1243;-72
2022/12/30 12:10:22;;;;;;;;;;;;;;;;;;5090267;28;1254;-72
2022/12/30 12:12:51;;;;;;;;;;;;;;;;;;5089257;28;1479;-72
2022/12/30 12:15:21;;;;;;;;;;;;;;;;;;5090467;28;1121;-73
2022/12/30 12:17:47;;;;;;;;;;;;;;;;;;5089584;28;1950;-73
2022/12/30 12:20:15;;;;;;;;;;;;;;;;;;5090510;28;1366;-72
2022/12/30 12:22:43;;;;;;;;;;;;;;;;;;5086848;28;1399;-72
2022/12/30 12:25:14;;;;;;;;;;;;;;;;;;5090377;28;1394;-72
2022/12/30 12:27:40;;;;;;;;;;;;;;;;;;5077284;28;1104;-72
2022/12/30 12:30:12;;;;;;;;;;;;;;;;;;5089621;28;1309;-72
2022/12/30 12:32:42;;;;;;;;;;;;;;;;;;5088717;28;1226;-73
2022/12/30 12:35:11;;;;;;;;;;;;;;;;;;5091346;28;1179;-73
2022/12/30 12:37:39;;;;;;;;;;;;;;;;;;5090464;28;1281;-73
2022/12/30 12:40:15;;;;;;;;;;;;;;;;;;5072241;28;1918;-73
2022/12/30 12:42:42;;;;;;;;;;;;;;;;;;5088401;28;1038;-73
2022/12/30 12:45:16;;;;;;;;;;;;;;;;;;5088356;28;1130;-73
2022/12/30 12:47:49;;;;;;;;;;;;;;;;;;5090113;28;1345;-74
2022/12/30 12:50:18;;;;;;;;;;;;;;;;;;5088593;28;1278;-73
2022/12/30 12:52:47;;;;;;;;;;;;;;;;;;5089058;28;1407;-74
2022/12/30 12:55:28;;;;;;;;;;;;;;;;;;5089932;28;1340;-73
2022/12/30 12:57:55;;;;;;;;;;;;;;;;;;5086872;28;1979;-74
2022/12/30 13:00:22;;;;;;;;;;;;;;;;;;5090099;28;1304;-74
2022/12/30 13:03:07;;;;;;;;;;;;;;;;;;5089002;28;1530;-73
2022/12/30 13:05:34;;;;;;;;;;;;;;;;;;5088782;28;1274;-73
2022/12/30 13:08:02;;;;;;;;;;;;;;;;;;5090142;28;1334;-74
2022/12/30 13:10:30;;;;;;;;;;;;;;;;;;5091427;28;936;-74
2022/12/30 13:12:58;;;;;;;;;;;;;;;;;;5090390;28;1420;-74
2022/12/30 13:15:27;;;;;;;;;;;;;;;;;;5091109;28;1155;-74
2022/12/30 13:17:54;;;;;;;;;;;;;;;;;;5091188;28;1071;-74
2022/12/30 13:20:21;;;;;;;;;;;;;;;;;;5073158;28;2008;-74
2022/12/30 13:22:49;;;;;;;;;;;;;;;;;;5090458;28;1361;-74
2022/12/30 13:25:16;;;;;;;;;;;;;;;;;;5068740;28;1395;-74
2022/12/30 13:27:42;;;;;;;;;;;;;;;;;;5080121;28;881;-74
2022/12/30 13:30:12;;;;;;;;;;;;;;;;;;5089487;28;1128;-73
2022/12/30 13:32:41;;;;;;;;;;;;;;;;;;5074782;28;1351;-73
2022/12/30 13:35:16;;;;;;;;;;;;;;;;;;5071524;28;1427;-74
2022/12/30 13:37:45;;;;;;;;;;;;;;;;;;5088396;28;1294;-73
2022/12/30 13:40:14;;;;;;;;;;;;;;;;;;5089157;28;1922;-73
2022/12/30 13:42:43;;;;;;;;;;;;;;;;;;5089465;28;1054;-74
2022/12/30 13:45:18;;;;;;;;;;;;;;;;;;5089177;28;1373;-74
2022/12/30 13:47:46;;;;;;;;;;;;;;;;;;5072825;28;1380;-73
2022/12/30 13:50:14;;;;;;;;;;;;;;;;;;5091479;28;1678;-74
2022/12/30 13:52:44;;;;;;;;;;;;;;;;;;5094052;28;1240;-74
2022/12/30 13:55:16;;;;;;;;;;;;;;;;;;5089376;28;1355;-74
2022/12/30 13:57:42;;;;;;;;;;;;;;;;;;5069023;28;1312;-74
2022/12/30 14:00:10;;;;;;;;;;;;;;;;;;5087115;28;1975;-74
2022/12/30 14:02:50;;;;;;;;;;;;;;;;;;5089651;28;1141;-74
2022/12/30 14:05:35;;;;;;;;;;;;;;;;;;5088232;28;1407;-73
2022/12/30 14:08:01;;;;;;;;;;;;;;;;;;5058909;28;1406;-74
2022/12/30 14:10:51;;;;;;;;;;;;;;;;;;5093995;28;1407;-73
2022/12/30 14:13:32;;;;;;;;;;;;;;;;;;5074417;28;1341;-73
2022/12/30 14:15:58;;;;;;;;;;;;;;;;;;5093333;28;1137;-73
2022/12/30 14:18:33;;;;;;;;;;;;;;;;;;5094040;28;1910;-73
2022/12/30 14:21:00;;;;;;;;;;;;;;;;;;5074889;28;1430;-73
2022/12/30 14:23:34;;;;;;;;;;;;;;;;;;5089787;28;1487;-74
2022/12/30 14:26:09;;;;;;;;;;;;;;;;;;5091791;28;1374;-75
2022/12/30 14:28:35;;;;;;;;;;;;;;;;;;5088002;28;1636;-74
2022/12/30 14:31:01;;;;;;;;;;;;;;;;;;5086761;28;1562;-73
2022/12/30 14:33:30;;;;;;;;;;;;;;;;;;5087336;28;1584;-73
2022/12/30 14:35:59;;;;;;;;;;;;;;;;;;5087265;28;1432;-73
2022/12/30 14:38:38;;;;;;;;;;;;;;;;;;5093643;28;1973;-74
2022/12/30 14:41:05;;;;;;;;;;;;;;;;;;5093030;28;1051;-74
2022/12/30 14:43:31;;;;;;;;;;;;;;;;;;5087282;28;1389;-73
2022/12/30 14:46:16;;;;;;;;;;;;;;;;;;5080628;28;1388;-73
2022/12/30 14:49:01;;;;;;;;;;;;;;;;;;5091007;28;1421;-76
2022/12/30 14:51:27;;;;;;;;;;;;;;;;;;5089093;28;1423;-76
2022/12/30 14:53:53;;;;;;;;;;;;;;;;;;5074790;28;1345;-76
2022/12/30 14:56:20;;;;;;;;;;;;;;;;;;5093042;28;1079;-76
2022/12/30 14:58:46;;;;;;;;;;;;;;;;;;5073521;28;1968;-76
2022/12/30 15:01:13;;;;;;;;;;;;;;;;;;5093200;28;1165;-76
2022/12/30 15:03:39;;;;;;;;;;;;;;;;;;5074136;28;1357;-76
2022/12/30 15:06:07;;;;;;;;;;;;;;;;;;5092868;28;1091;-77
2022/12/30 15:08:34;;;;;;;;;;;;;;;;;;5071983;28;1382;-77
2022/12/30 15:11:02;;;;;;;;;;;;;;;;;;5090339;28;1430;-74
2022/12/30 15:13:28;;;;;;;;;;;;;;;;;;5090860;28;1708;-76
2022/12/30 15:15:55;;;;;;;;;;;;;;;;;;5091820;28;1437;-74
2022/12/30 15:18:27;;;;;;;;;;;;;;;;;;5091047;28;1419;-74
2022/12/30 15:20:53;;;;;;;;;;;;;;;;;;5069063;28;1922;-74
2022/12/30 15:23:21;;;;;;;;;;;;;;;;;;5088896;28;1407;-74
2022/12/30 15:25:53;;;;;;;;;;;;;;;;;;5090176;28;1362;-74
2022/12/30 15:28:19;;;;;;;;;;;;;;;;;;5092294;28;1166;-75
2022/12/30 15:30:48;;;;;;;;;;;;;;;;;;5073193;28;1478;-76
2022/12/30 15:33:14;;;;;;;;;;;;;;;;;;5084015;28;1342;-77
2022/12/30 15:35:40;;;;;;;;;;;;;;;;;;5086958;28;1391;-76
2022/12/30 15:38:08;;;;;;;;;;;;;;;;;;5087387;28;926;-75
2022/12/30 15:40:36;;;;;;;;;;;;;;;;;;5092875;28;1975;-75
2022/12/30 15:43:03;;;;;;;;;;;;;;;;;;5072608;28;1348;-75
2022/12/30 15:45:31;;;;;;;;;;;;;;;;;;5074064;28;1362;-75
2022/12/30 15:47:58;;;;;;;;;;;;;;;;;;5090428;28;1526;-76
2022/12/30 15:50:28;;;;;;;;;;;;;;;;;;5092115;28;1165;-76
2022/12/30 15:52:55;;;;;;;;;;;;;;;;;;5089335;28;1462;-76
2022/12/30 15:55:21;;;;;;;;;;;;;;;;;;5075606;28;1308;-76
2022/12/30 15:57:48;;;;;;;;;;;;;;;;;;5087165;28;1449;-75
2022/12/30 16:00:18;;;;;;;;;;;;;;;;;;5089755;28;1921;-74
2022/12/30 16:02:45;;;;;;;;;;;;;;;;;;5072298;28;1259;-73
2022/12/30 16:05:17;;;;;;;;;;;;;;;;;;5091201;28;814;-73
2022/12/30 16:07:44;;;;;;;;;;;;;;;;;;5088794;28;1462;-73
2022/12/30 16:10:22;;;;;;;;;;;;;;;;;;5088350;28;1418;-73
2022/12/30 16:12:50;;;;;;;;;;;;;;;;;;5087718;28;1394;-74
2022/12/30 16:15:17;;;;;;;;;;;;;;;;;;5077172;28;1445;-73
2022/12/30 16:17:55;;;;;;;;;;;;;;;;;;5072340;28;1000;-74
2022/12/30 16:20:25;;;;;;;;;;;;;;;;;;5070798;28;1906;-74
2022/12/30 16:22:51;;;;;;;;;;;;;;;;;;5086972;28;1313;-74
2022/12/30 16:25:18;;;;;;;;;;;;;;;;;;5071985;28;1476;-74
2022/12/30 16:27:46;;;;;;;;;;;;;;;;;;5083970;28;1382;-74
2022/12/30 16:30:17;;;;;;;;;;;;;;;;;;5089660;28;1383;-74
2022/12/30 16:32:43;;;;;;;;;;;;;;;;;;5075634;28;1406;-74
2022/12/30 16:35:10;;;;;;;;;;;;;;;;;;5050276;28;1429;-73
2022/12/30 16:37:37;;;;;;;;;;;;;;;;;;5019166;28;1308;-73
2022/12/30 16:40:04;;;;;;;;;;;;;;;;;;5025994;28;1922;-74
2022/12/30 16:42:31;;;;;;;;;;;;;;;;;;5028983;28;1382;-75
2022/12/30 16:44:58;;;;;;;;;;;;;;;;;;5039560;28;1394;-75
2022/12/30 16:47:26;;;;;;;;;;;;;;;;;;5030637;28;1236;-74
2022/12/30 16:49:52;;;;;;;;;;;;;;;;;;4998810;28;1654;-75
2022/12/30 16:52:20;;;;;;;;;;;;;;;;;;4994438;28;1822;-75
2022/12/30 16:54:47;;;;;;;;;;;;;;;;;;5016106;28;1308;-75
2022/12/30 16:57:13;;;;;;;;;;;;;;;;;;5014045;28;1566;-74
2022/12/30 16:59:40;;;;;;;;;;;;;;;;;;5024823;28;1930;-74
2022/12/30 17:02:09;;;;;;;;;;;;;;;;;;5005852;28;1182;-74
2022/12/30 17:04:37;;;;;;;;;;;;;;;;;;5025011;28;1242;-75
2022/12/30 17:07:04;;;;;;;;;;;;;;;;;;5025494;28;1071;-74
2022/12/30 17:12:14;;;;;;;;;;;;;;;;;;5017754;28;837;-76
2022/12/30 17:14:41;;;;;;;;;;;;;;;;;;5020805;28;1285;-75
2022/12/30 17:17:09;;;;;;;;;;;;;;;;;;5025068;28;1008;-75
2022/12/30 17:19:37;;;;;;;;;;;;;;;;;;5010566;28;1958;-75
2022/12/30 17:22:03;;;;;;;;;;;;;;;;;;5042391;28;988;-74
2022/12/30 17:24:29;;;;;;;;;;;;;;;;;;5042110;28;1309;-75
2022/12/30 17:26:56;;;;;;;;;;;;;;;;;;5028877;28;1068;-75
2022/12/30 17:29:22;;;;;;;;;;;;;;;;;;5024007;28;873;-74
2022/12/30 17:31:49;;;;;;;;;;;;;;;;;;5022676;28;882;-75
2022/12/30 17:34:16;;;;;;;;;;;;;;;;;;5026375;28;1416;-74
2022/12/30 17:36:44;;;;;;;;;;;;;;;;;;5028591;28;802;-74
2022/12/30 17:39:11;;;;;;;;;;;;;;;;;;5027132;28;865;-73
2022/12/30 17:41:37;;;;;;;;;;;;;;;;;;5027312;28;1937;-74
2022/12/30 17:44:04;;;;;;;;;;;;;;;;;;5028079;28;1289;-73
2022/12/30 17:46:30;;;;;;;;;;;;;;;;;;5005885;28;1119;-73
2022/12/30 17:48:57;;;;;;;;;;;;;;;;;;5016228;28;813;-74
2022/12/30 17:51:26;;;;;;;;;;;;;;;;;;5023200;28;861;-75
2022/12/30 17:53:54;;;;;;;;;;;;;;;;;;5025063;28;1623;-74
2022/12/30 17:56:23;;;;;;;;;;;;;;;;;;5021174;28;913;-71
2022/12/30 17:58:49;;;;;;;;;;;;;;;;;;5017345;28;890;-74
2022/12/30 18:01:16;;;;;;;;;;;;;;;;;;5018591;28;1942;-72
2022/12/30 18:03:42;;;;;;;;;;;;;;;;;;5022831;28;1416;-75
2022/12/30 18:06:09;;;;;;;;;;;;;;;;;;5032878;28;970;-74
2022/12/30 18:08:35;;;;;;;;;;;;;;;;;;5015154;28;1551;-73
2022/12/30 18:11:05;;;;;;;;;;;;;;;;;;5021210;28;1509;-75
2022/12/30 18:13:32;;;;;;;;;;;;;;;;;;5023106;28;1317;-75